createdAt,value
2023-04-01T00:08:59.233Z,96953.98
2023-04-01T00:19:24.880Z,96941.06
2023-04-01T00:29:50.936Z,96941.44
2023-04-01T00:40:28.271Z,96939.69
2023-04-01T00:50:59.166Z,96938.95
2023-04-01T01:01:26.823Z,96950.64
2023-04-01T01:12:01.584Z,96948.29
2023-04-01T01:22:38.715Z,96946.34
2023-04-01T01:33:22.708Z,96930.45
2023-04-01T01:43:53.938Z,96929.99
2023-04-01T01:54:20.471Z,96930.08
2023-04-01T02:04:48.433Z,96935.77
2023-04-01T02:15:17.391Z,96936.27
2023-04-01T02:25:45.371Z,96943.27
2023-04-01T02:36:15.056Z,96953.55
2023-04-01T02:46:40.783Z,96952.31
2023-04-01T02:57:06.803Z,96951.37
2023-04-01T03:07:32.769Z,96955.53
2023-04-01T03:17:58.549Z,96963.17
2023-04-01T03:28:24.292Z,96958.50
2023-04-01T03:38:58.516Z,96960.73
2023-04-01T03:49:23.957Z,96964.95
2023-04-01T03:59:49.676Z,96966.69
2023-04-01T04:10:15.727Z,96966.94
2023-04-01T04:20:49.560Z,96959.41
2023-04-01T04:31:20.211Z,96960.11
2023-04-01T04:41:46.172Z,96964.20
2023-04-01T04:52:12.060Z,96953.11
2023-04-01T05:02:38.554Z,96958.69
2023-04-01T05:13:04.653Z,96969.73
2023-04-01T05:23:31.289Z,96972.17
2023-04-01T05:33:57.153Z,96966.39
2023-04-01T05:44:22.605Z,96974.66
2023-04-01T05:54:48.102Z,96982.80
2023-04-01T06:05:20.327Z,96985.13
2023-04-01T06:15:56.105Z,96989.89
2023-04-01T06:26:33.941Z,96997.77
2023-04-01T06:37:17.399Z,96999.67
2023-04-01T06:47:57.047Z,96998.88
2023-04-01T06:58:26.672Z,97004.36
2023-04-01T07:08:55.230Z,97003.81
2023-04-01T07:19:29.275Z,97009.54
2023-04-01T07:29:58.546Z,97015.05
2023-04-01T07:40:36.692Z,97020.75
2023-04-01T07:51:11.252Z,97021.41
2023-04-01T08:01:42.391Z,97030.92
2023-04-01T08:12:22.946Z,97034.52
2023-04-01T08:22:53.833Z,97041.38
2023-04-01T08:33:26.262Z,97048.69
2023-04-01T08:44:33.444Z,97044.70
2023-04-01T08:55:15.429Z,97049.79
2023-04-01T09:05:58.698Z,97054.52
2023-04-01T09:16:40.497Z,97050.30
2023-04-01T09:27:17.836Z,97046.17
2023-04-01T09:37:56.564Z,97049.90
2023-04-01T09:48:42.651Z,97049.27
2023-04-01T09:59:53.376Z,97056.29
2023-04-01T10:11:01.587Z,97067.51
2023-04-01T10:21:49.031Z,97062.44
2023-04-01T10:32:50.790Z,97051.02
2023-04-01T10:43:54.570Z,97059.41
2023-04-01T10:54:48.472Z,97061.50
2023-04-01T11:05:45.642Z,97055.64
2023-04-01T11:16:43.691Z,97061.87
2023-04-01T11:27:21.959Z,97062.32
2023-04-01T11:37:56.640Z,97050.41
2023-04-01T11:48:44.916Z,97058.98
2023-04-01T11:59:46.678Z,97078.04
2023-04-01T12:10:21.077Z,97079.52
2023-04-01T12:20:54.433Z,97072.44
2023-04-01T12:31:34.230Z,97067.35
2023-04-01T12:42:14.086Z,97072.44
2023-04-01T12:52:48.175Z,97071.80
2023-04-01T13:03:36.031Z,97077.92
2023-04-01T13:14:31.367Z,97079.20
2023-04-01T13:25:05.615Z,97079.33
2023-04-01T13:35:41.448Z,97085.48
2023-04-01T13:46:28.422Z,97095.70
2023-04-01T13:57:08.802Z,97095.53
2023-04-01T14:07:49.726Z,97094.00
2023-04-01T14:18:29.910Z,97088.77
2023-04-01T14:29:02.935Z,97091.17
2023-04-01T14:39:51.986Z,97099.52
2023-04-01T14:50:20.181Z,97109.84
2023-04-01T15:01:02.408Z,97123.48
2023-04-01T15:11:45.984Z,97125.07
2023-04-01T15:22:28.272Z,97132.96
2023-04-01T15:33:05.136Z,97151.52
2023-04-01T15:43:43.948Z,97180.91
2023-04-01T15:54:28.597Z,97188.14
2023-04-01T16:05:00.875Z,97193.85
2023-04-01T16:15:32.831Z,97202.83
2023-04-01T16:26:07.811Z,97212.38
2023-04-01T16:36:38.099Z,97209.01
2023-04-01T16:47:13.115Z,97205.45
2023-04-01T16:57:51.341Z,97223.59
2023-04-01T17:08:25.360Z,97248.67
2023-04-01T17:19:01.415Z,97267.15
2023-04-01T17:29:34.122Z,97286.31
2023-04-01T17:40:14.075Z,97298.63
2023-04-01T17:50:55.388Z,97303.59
2023-04-01T18:01:32.231Z,97323.58
2023-04-01T18:12:11.475Z,97343.95
2023-04-01T18:22:45.157Z,97347.86
2023-04-01T18:33:23.515Z,97358.23
2023-04-01T18:44:04.119Z,97361.55
2023-04-01T18:54:33.459Z,97364.31
2023-04-01T19:05:07.971Z,97370.81
2023-04-01T19:15:41.900Z,97384.11
2023-04-01T19:26:13.255Z,97391.69
2023-04-01T19:36:47.550Z,97408.21
2023-04-01T19:47:22.999Z,97424.34
2023-04-01T19:57:55.148Z,97434.66
2023-04-01T20:08:29.327Z,97445.46
2023-04-01T20:18:59.161Z,97451.73
2023-04-01T20:29:49.406Z,97455.26
2023-04-01T20:40:37.345Z,97465.01
2023-04-01T20:51:08.813Z,97466.98
2023-04-01T21:01:46.948Z,97471.20
2023-04-01T21:12:28.079Z,97476.14
2023-04-01T21:23:17.326Z,97485.39
2023-04-01T21:33:55.187Z,97492.36
2023-04-01T21:44:39.240Z,97500.13
2023-04-01T21:55:29.087Z,97505.27
2023-04-01T22:06:02.322Z,97509.88
2023-04-01T22:16:33.391Z,97518.63
2023-04-01T22:27:05.091Z,97523.09
2023-04-01T22:37:41.305Z,97526.84
2023-04-01T22:48:13.400Z,97527.06
2023-04-01T22:58:45.214Z,97530.43
2023-04-01T23:09:17.151Z,97535.08
2023-04-01T23:19:49.695Z,97542.69
2023-04-01T23:30:52.276Z,97549.69
2023-04-01T23:41:26.520Z,97557.55
2023-04-01T23:51:58.490Z,97569.92
